EZY16UD EGKK-LCLK
Flight info
| Callsign | EZY16UD |
|---|---|
| Flight time | N/A |
| Altitude | 33000 |
| Route | MIMFO Y312 DVR UL9 KONAN UL607 REMBA DCT RITAX DCT PITES DCT BANUX DCT VEKIR DCT LATLO DCT OBEDI DCT CEPRA DCT PODET DCT VABEK UL603 OLOTA DCT DISOR UL608 FSK UN128 RIKSO UP14 ZAFLE DCT BENEM UN127 EXELA UM601 EVENO M601 BONEK |
| Aircraft | A320/M-SDE2E3FGHIJ1RWXYZ/LB1 |
Departure
| Time | 2026-04-18 09:03 |
|---|---|
| Airport | London Gatwick Airport (EGKK) |
Arrival
| Time | N/A |
|---|---|
| Airport | Larnaca International Airport (LCLK) |
| Time | Latitude | Longitude | Altitude | Speed | Heading |
|---|---|---|---|---|---|
| 2026-04-18 08:26 | 51.15833 | -0.17634 | 204 ft | 0 kts | 347° |
| 2026-04-18 08:52 | 51.15824 | -0.17631 | 203 ft | 4 kts | 348° |
| 2026-04-18 08:53 | 51.15797 | -0.17623 | 211 ft | 4 kts | 352° |
| 2026-04-18 08:53 | 51.15770 | -0.17620 | 213 ft | 4 kts | 5° |
| 2026-04-18 08:53 | 51.15747 | -0.17631 | 216 ft | 4 kts | 54° |
| 2026-04-18 08:53 | 51.15743 | -0.17641 | 213 ft | 0 kts | 77° |
| 2026-04-18 08:56 | 51.15751 | -0.17584 | 203 ft | 11 kts | 79° |
| 2026-04-18 08:56 | 51.15703 | -0.17493 | 212 ft | 14 kts | 166° |
| 2026-04-18 08:56 | 51.15610 | -0.17460 | 203 ft | 13 kts | 167° |
| 2026-04-18 08:57 | 51.15465 | -0.17409 | 203 ft | 9 kts | 167° |
| 2026-04-18 08:57 | 51.15407 | -0.17389 | 203 ft | 12 kts | 167° |
| 2026-04-18 08:57 | 51.15314 | -0.17356 | 212 ft | 13 kts | 168° |
| 2026-04-18 08:58 | 51.15243 | -0.17284 | 209 ft | 14 kts | 104° |
| 2026-04-18 08:58 | 51.15258 | -0.17143 | 203 ft | 12 kts | 78° |
| 2026-04-18 08:58 | 51.15279 | -0.16997 | 206 ft | 16 kts | 78° |
| 2026-04-18 08:58 | 51.15282 | -0.16840 | 209 ft | 13 kts | 124° |
| 2026-04-18 08:59 | 51.15238 | -0.16811 | 212 ft | 0 kts | 168° |
| 2026-04-18 09:01 | 51.15229 | -0.16807 | 210 ft | 7 kts | 168° |
| 2026-04-18 09:01 | 51.15155 | -0.16787 | 202 ft | 11 kts | 183° |
| 2026-04-18 09:01 | 51.15112 | -0.16871 | 212 ft | 9 kts | 258° |
| 2026-04-18 09:02 | 51.15110 | -0.16887 | 206 ft | 0 kts | 258° |
| 2026-04-18 09:02 | 51.15108 | -0.16901 | 206 ft | 7 kts | 258° |
| 2026-04-18 09:02 | 51.15048 | -0.17341 | 205 ft | 75 kts | 257° |
| 2026-04-18 09:03 | 51.14893 | -0.18462 | 207 ft | 130 kts | 257° |
| 2026-04-18 09:03 | 51.14668 | -0.20089 | 242 ft | 166 kts | 256° |
| 2026-04-18 09:03 | 51.14420 | -0.21809 | 893 ft | 158 kts | 259° |
| 2026-04-18 09:03 | 51.14165 | -0.23541 | 1322 ft | 168 kts | 261° |
| 2026-04-18 09:04 | 51.13916 | -0.25425 | 1617 ft | 178 kts | 261° |
| 2026-04-18 09:04 | 51.13693 | -0.27408 | 1965 ft | 188 kts | 270° |
| 2026-04-18 09:04 | 51.13945 | -0.29528 | 2150 ft | 207 kts | 297° |
| 2026-04-18 09:04 | 51.14882 | -0.31316 | 2702 ft | 214 kts | 324° |
| 2026-04-18 09:05 | 51.16272 | -0.32189 | 3361 ft | 221 kts | 352° |
| 2026-04-18 09:05 | 51.17812 | -0.31809 | 3907 ft | 234 kts | 22° |
| 2026-04-18 09:05 | 51.19032 | -0.30100 | 3994 ft | 239 kts | 59° |
| 2026-04-18 09:05 | 51.19527 | -0.27574 | 4011 ft | 242 kts | 78° |
| 2026-04-18 09:06 | 51.19831 | -0.24925 | 4014 ft | 243 kts | 79° |
| 2026-04-18 09:06 | 51.20134 | -0.22272 | 4013 ft | 244 kts | 78° |
| 2026-04-18 09:06 | 51.20447 | -0.19599 | 4022 ft | 255 kts | 78° |
| 2026-04-18 09:06 | 51.20807 | -0.16713 | 4009 ft | 271 kts | 77° |
| 2026-04-18 09:07 | 51.21192 | -0.13735 | 4108 ft | 280 kts | 77° |
| 2026-04-18 09:07 | 51.21595 | -0.10685 | 4814 ft | 283 kts | 77° |
| 2026-04-18 09:07 | 51.22000 | -0.07628 | 4986 ft | 281 kts | 77° |
| 2026-04-18 09:07 | 51.22402 | -0.04577 | 5008 ft | 281 kts | 77° |
| 2026-04-18 09:08 | 51.22793 | -0.01565 | 5017 ft | 281 kts | 77° |
| 2026-04-18 09:08 | 51.23191 | 0.01496 | 4899 ft | 284 kts | 78° |
| 2026-04-18 09:08 | 51.23593 | 0.04600 | 4886 ft | 286 kts | 78° |
| 2026-04-18 09:08 | 51.23996 | 0.07709 | 4863 ft | 286 kts | 78° |
| 2026-04-18 09:09 | 51.24397 | 0.10819 | 4844 ft | 286 kts | 77° |
| 2026-04-18 09:09 | 51.24800 | 0.13929 | 4827 ft | 286 kts | 78° |
| 2026-04-18 09:09 | 51.25200 | 0.17036 | 4809 ft | 286 kts | 78° |
| 2026-04-18 09:09 | 51.25438 | 0.20180 | 4789 ft | 286 kts | 91° |
| 2026-04-18 09:10 | 51.25233 | 0.23360 | 5291 ft | 289 kts | 99° |
| 2026-04-18 09:10 | 51.24978 | 0.26565 | 5817 ft | 293 kts | 99° |
| 2026-04-18 09:10 | 51.24740 | 0.29784 | 5939 ft | 292 kts | 99° |
| 2026-04-18 09:10 | 51.24506 | 0.33013 | 5943 ft | 292 kts | 99° |
| 2026-04-18 09:11 | 51.24269 | 0.36236 | 5948 ft | 292 kts | 99° |
| 2026-04-18 09:11 | 51.24026 | 0.39450 | 5946 ft | 292 kts | 99° |
| 2026-04-18 09:11 | 51.23779 | 0.42660 | 5948 ft | 292 kts | 99° |
| 2026-04-18 09:11 | 51.23530 | 0.45867 | 5946 ft | 291 kts | 99° |
| 2026-04-18 09:12 | 51.23283 | 0.49080 | 5941 ft | 292 kts | 100° |
| 2026-04-18 09:12 | 51.23036 | 0.52319 | 6356 ft | 295 kts | 101° |
| 2026-04-18 09:12 | 51.22787 | 0.55578 | 7091 ft | 297 kts | 100° |
| 2026-04-18 09:12 | 51.22533 | 0.58861 | 7793 ft | 300 kts | 100° |
| 2026-04-18 09:13 | 51.22273 | 0.62172 | 8489 ft | 303 kts | 100° |
| 2026-04-18 09:13 | 51.22008 | 0.65530 | 9185 ft | 306 kts | 99° |
| 2026-04-18 09:13 | 51.21740 | 0.68918 | 9875 ft | 310 kts | 99° |
| 2026-04-18 09:13 | 51.21463 | 0.72366 | 10336 ft | 321 kts | 100° |
| 2026-04-18 09:14 | 51.21168 | 0.76014 | 10486 ft | 343 kts | 99° |
| 2026-04-18 09:14 | 51.20862 | 0.79843 | 10705 ft | 360 kts | 99° |
| 2026-04-18 09:14 | 51.20546 | 0.83848 | 11232 ft | 367 kts | 99° |
| 2026-04-18 09:14 | 51.20225 | 0.87910 | 11836 ft | 371 kts | 99° |
| 2026-04-18 09:15 | 51.19900 | 0.92006 | 12446 ft | 375 kts | 100° |
| 2026-04-18 09:15 | 51.19566 | 0.96151 | 13064 ft | 378 kts | 100° |
| 2026-04-18 09:15 | 51.19226 | 1.00320 | 13685 ft | 380 kts | 100° |
| 2026-04-18 09:15 | 51.18879 | 1.04517 | 14239 ft | 384 kts | 100° |
| 2026-04-18 09:16 | 51.18529 | 1.08754 | 14735 ft | 387 kts | 100° |
| 2026-04-18 09:16 | 51.18174 | 1.13028 | 15227 ft | 391 kts | 100° |
| 2026-04-18 09:16 | 51.17816 | 1.17344 | 15717 ft | 394 kts | 100° |
| 2026-04-18 09:16 | 51.17456 | 1.21693 | 16206 ft | 398 kts | 100° |
| 2026-04-18 09:17 | 51.17088 | 1.26081 | 16705 ft | 401 kts | 101° |
| 2026-04-18 09:17 | 51.16713 | 1.30503 | 17183 ft | 404 kts | 101° |
| 2026-04-18 09:17 | 51.16335 | 1.34945 | 17661 ft | 407 kts | 101° |
| 2026-04-18 09:17 | 51.15997 | 1.39446 | 18136 ft | 411 kts | 98° |
| 2026-04-18 09:18 | 51.15746 | 1.44002 | 18586 ft | 415 kts | 97° |
| 2026-04-18 09:18 | 51.15549 | 1.48602 | 19008 ft | 418 kts | 96° |
| 2026-04-18 09:18 | 51.15431 | 1.51669 | 19281 ft | 420 kts | 96° |
| 2026-04-18 09:18 | 51.15252 | 1.56329 | 19698 ft | 423 kts | 96° |
| 2026-04-18 09:19 | 51.15058 | 1.61019 | 20113 ft | 426 kts | 96° |
| 2026-04-18 09:19 | 51.14843 | 1.65733 | 20526 ft | 429 kts | 97° |
| 2026-04-18 09:19 | 51.14527 | 1.72029 | 21066 ft | 433 kts | 97° |
| 2026-04-18 09:19 | 51.14278 | 1.76818 | 21471 ft | 435 kts | 97° |
| 2026-04-18 09:20 | 51.14110 | 1.80074 | 21745 ft | 437 kts | 97° |
| 2026-04-18 09:20 | 51.13859 | 1.84919 | 22137 ft | 440 kts | 97° |
| 2026-04-18 09:20 | 51.13603 | 1.89794 | 22502 ft | 443 kts | 98° |
| 2026-04-18 09:20 | 51.13344 | 1.94701 | 22854 ft | 447 kts | 98° |
| 2026-04-18 09:21 | 51.13083 | 1.99652 | 23215 ft | 450 kts | 98° |
| 2026-04-18 09:21 | 51.12822 | 2.04633 | 23572 ft | 453 kts | 99° |
| 2026-04-18 09:21 | 51.12213 | 2.09523 | 23884 ft | 448 kts | 114° |
| 2026-04-18 09:21 | 51.11000 | 2.14064 | 24186 ft | 446 kts | 120° |
| 2026-04-18 09:22 | 51.09711 | 2.18571 | 24486 ft | 449 kts | 120° |
| 2026-04-18 09:22 | 51.08404 | 2.23094 | 24770 ft | 451 kts | 120° |
| 2026-04-18 09:22 | 51.07085 | 2.27629 | 25052 ft | 453 kts | 121° |
| 2026-04-18 09:22 | 51.05756 | 2.32183 | 25319 ft | 455 kts | 121° |
| 2026-04-18 09:23 | 51.04434 | 2.36710 | 25593 ft | 457 kts | 121° |
| 2026-04-18 09:23 | 51.03109 | 2.41241 | 25879 ft | 459 kts | 121° |
| 2026-04-18 09:23 | 51.01744 | 2.45907 | 26154 ft | 461 kts | 121° |
| 2026-04-18 09:23 | 51.00393 | 2.50530 | 26415 ft | 463 kts | 121° |
| 2026-04-18 09:24 | 50.99036 | 2.55173 | 26675 ft | 465 kts | 121° |
| 2026-04-18 09:24 | 50.97671 | 2.59834 | 26930 ft | 467 kts | 121° |
| 2026-04-18 09:24 | 50.96297 | 2.64508 | 27173 ft | 468 kts | 121° |
| 2026-04-18 09:24 | 50.94915 | 2.69197 | 27415 ft | 470 kts | 121° |
| 2026-04-18 09:25 | 50.93526 | 2.73903 | 27661 ft | 472 kts | 122° |
| 2026-04-18 09:25 | 50.92146 | 2.78570 | 27893 ft | 474 kts | 122° |
| 2026-04-18 09:25 | 50.90744 | 2.83316 | 28101 ft | 476 kts | 121° |
| 2026-04-18 09:25 | 50.89337 | 2.88071 | 28363 ft | 477 kts | 122° |
| 2026-04-18 09:26 | 50.87922 | 2.92830 | 28595 ft | 478 kts | 122° |
| 2026-04-18 09:26 | 50.86497 | 2.97603 | 28808 ft | 480 kts | 122° |
| 2026-04-18 09:26 | 50.85558 | 3.00755 | 28984 ft | 480 kts | 122° |
| 2026-04-18 09:27 | 50.84131 | 3.05548 | 29153 ft | 483 kts | 122° |
| 2026-04-18 09:27 | 50.82695 | 3.10354 | 29307 ft | 485 kts | 121° |
| 2026-04-18 09:27 | 50.81244 | 3.15179 | 29500 ft | 486 kts | 121° |
| 2026-04-18 09:27 | 50.79788 | 3.20014 | 29688 ft | 488 kts | 122° |
| 2026-04-18 09:28 | 50.78325 | 3.24863 | 29875 ft | 489 kts | 122° |
| 2026-04-18 09:28 | 50.76857 | 3.29721 | 30097 ft | 489 kts | 121° |
| 2026-04-18 09:28 | 50.75394 | 3.34556 | 30405 ft | 487 kts | 121° |
| 2026-04-18 09:28 | 50.73933 | 3.39378 | 30641 ft | 487 kts | 121° |
| 2026-04-18 09:29 | 50.72473 | 3.44190 | 30874 ft | 486 kts | 121° |
| 2026-04-18 09:29 | 50.71013 | 3.48991 | 31102 ft | 485 kts | 121° |
| 2026-04-18 09:29 | 50.69550 | 3.53789 | 31333 ft | 485 kts | 122° |
| 2026-04-18 09:29 | 50.68108 | 3.58510 | 31561 ft | 484 kts | 122° |
| 2026-04-18 09:30 | 50.66645 | 3.63287 | 31789 ft | 483 kts | 122° |
| 2026-04-18 09:30 | 50.65182 | 3.68051 | 32035 ft | 483 kts | 122° |
| 2026-04-18 09:30 | 50.63717 | 3.72808 | 32222 ft | 482 kts | 122° |
| 2026-04-18 09:30 | 50.62257 | 3.77551 | 32481 ft | 481 kts | 121° |
| 2026-04-18 09:31 | 50.60804 | 3.82279 | 32734 ft | 479 kts | 121° |
| 2026-04-18 09:31 | 50.59350 | 3.87000 | 32963 ft | 479 kts | 121° |
| 2026-04-18 09:31 | 50.57897 | 3.91712 | 33150 ft | 478 kts | 121° |
| 2026-04-18 09:31 | 50.56444 | 3.96404 | 33219 ft | 475 kts | 121° |
| 2026-04-18 09:32 | 50.53556 | 4.05694 | 33222 ft | 472 kts | 122° |
| 2026-04-18 09:32 | 50.50661 | 4.14943 | 33222 ft | 471 kts | 122° |
| 2026-04-18 09:33 | 50.47759 | 4.24177 | 33221 ft | 471 kts | 122° |
| 2026-04-18 09:33 | 50.44858 | 4.33412 | 33220 ft | 471 kts | 122° |
| 2026-04-18 09:34 | 50.41953 | 4.42628 | 33217 ft | 471 kts | 122° |
| 2026-04-18 09:34 | 50.39035 | 4.51817 | 33212 ft | 470 kts | 122° |
| 2026-04-18 09:35 | 50.36111 | 4.60991 | 33202 ft | 470 kts | 122° |
| 2026-04-18 09:35 | 50.33188 | 4.70137 | 33206 ft | 470 kts | 122° |
| 2026-04-18 09:36 | 50.30265 | 4.79263 | 33206 ft | 469 kts | 122° |
| 2026-04-18 09:36 | 50.27353 | 4.88318 | 33209 ft | 469 kts | 122° |
| 2026-04-18 09:37 | 50.24418 | 4.97404 | 33211 ft | 468 kts | 122° |
| 2026-04-18 09:37 | 50.21478 | 5.06475 | 33185 ft | 468 kts | 121° |
| 2026-04-18 09:38 | 50.18537 | 5.15528 | 33194 ft | 467 kts | 121° |
| 2026-04-18 09:38 | 50.15591 | 5.24554 | 33199 ft | 467 kts | 122° |
| 2026-04-18 09:39 | 50.12636 | 5.33554 | 33202 ft | 466 kts | 122° |
| 2026-04-18 09:39 | 50.09678 | 5.42540 | 33201 ft | 466 kts | 122° |
| 2026-04-18 09:40 | 50.06717 | 5.51504 | 33186 ft | 466 kts | 122° |
| 2026-04-18 09:40 | 50.03755 | 5.60456 | 33179 ft | 465 kts | 121° |
| 2026-04-18 09:41 | 50.00792 | 5.69393 | 33190 ft | 465 kts | 122° |
| 2026-04-18 09:41 | 49.97813 | 5.78300 | 33192 ft | 464 kts | 122° |
| 2026-04-18 09:42 | 49.94831 | 5.87196 | 33191 ft | 464 kts | 122° |
| 2026-04-18 09:42 | 49.91851 | 5.96085 | 33181 ft | 464 kts | 122° |
| 2026-04-18 09:43 | 49.88867 | 6.04952 | 33186 ft | 463 kts | 122° |
| 2026-04-18 09:43 | 49.85877 | 6.13794 | 33193 ft | 463 kts | 122° |
| 2026-04-18 09:44 | 49.82882 | 6.22616 | 33193 ft | 463 kts | 122° |
| 2026-04-18 09:44 | 49.79880 | 6.31434 | 33194 ft | 463 kts | 122° |
| 2026-04-18 09:45 | 49.76874 | 6.40240 | 33171 ft | 463 kts | 121° |
| 2026-04-18 09:45 | 49.73874 | 6.48985 | 33177 ft | 464 kts | 121° |
| 2026-04-18 09:46 | 49.70986 | 6.57924 | 33161 ft | 466 kts | 117° |
| 2026-04-18 09:46 | 49.68483 | 6.67186 | 33172 ft | 468 kts | 115° |
| 2026-04-18 09:47 | 49.66049 | 6.76496 | 33149 ft | 468 kts | 115° |
| 2026-04-18 09:47 | 49.63511 | 6.85723 | 33166 ft | 467 kts | 116° |
| 2026-04-18 09:48 | 49.60904 | 6.94894 | 33173 ft | 466 kts | 116° |
| 2026-04-18 09:48 | 49.58302 | 7.04051 | 33182 ft | 466 kts | 116° |
| 2026-04-18 09:49 | 49.55720 | 7.13207 | 33183 ft | 466 kts | 116° |
| 2026-04-18 09:49 | 49.53133 | 7.22366 | 33169 ft | 466 kts | 115° |
| 2026-04-18 09:50 | 49.50529 | 7.31484 | 33164 ft | 465 kts | 116° |
| 2026-04-18 09:50 | 49.47917 | 7.40586 | 33171 ft | 465 kts | 116° |
| 2026-04-18 09:51 | 49.45306 | 7.49677 | 33175 ft | 465 kts | 116° |
| 2026-04-18 09:51 | 49.42691 | 7.58766 | 33177 ft | 465 kts | 116° |
| 2026-04-18 09:52 | 49.40071 | 7.67837 | 33176 ft | 465 kts | 115° |
| 2026-04-18 09:52 | 49.37445 | 7.76899 | 33176 ft | 465 kts | 115° |
| 2026-04-18 09:53 | 49.34802 | 7.85950 | 33175 ft | 465 kts | 116° |
| 2026-04-18 09:53 | 49.32153 | 7.94989 | 33179 ft | 465 kts | 116° |
| 2026-04-18 09:54 | 49.29501 | 8.04015 | 33171 ft | 465 kts | 115° |
| 2026-04-18 09:54 | 49.26848 | 8.13026 | 33180 ft | 464 kts | 116° |
| 2026-04-18 09:55 | 49.24204 | 8.21964 | 33184 ft | 464 kts | 116° |
| 2026-04-18 09:55 | 49.21535 | 8.30944 | 33169 ft | 464 kts | 116° |
| 2026-04-18 09:56 | 49.18856 | 8.39924 | 33173 ft | 464 kts | 116° |
| 2026-04-18 09:56 | 49.16182 | 8.48888 | 33175 ft | 464 kts | 116° |
| 2026-04-18 09:57 | 49.13498 | 8.57845 | 33177 ft | 464 kts | 116° |
| 2026-04-18 09:57 | 49.10796 | 8.66798 | 33179 ft | 464 kts | 116° |
| 2026-04-18 09:58 | 49.08088 | 8.75728 | 33180 ft | 464 kts | 116° |
| 2026-04-18 09:58 | 49.05369 | 8.84656 | 33178 ft | 464 kts | 116° |
| 2026-04-18 09:59 | 49.02651 | 8.93573 | 33188 ft | 463 kts | 116° |
| 2026-04-18 10:00 | 48.98566 | 9.06921 | 33186 ft | 463 kts | 116° |
| 2026-04-18 10:00 | 48.95830 | 9.15788 | 33182 ft | 463 kts | 116° |
| 2026-04-18 10:01 | 48.93085 | 9.24644 | 33167 ft | 463 kts | 116° |
| 2026-04-18 10:01 | 48.90344 | 9.33489 | 33173 ft | 462 kts | 116° |
| 2026-04-18 10:02 | 48.87599 | 9.42310 | 33180 ft | 462 kts | 116° |
| 2026-04-18 10:02 | 48.84864 | 9.51056 | 33184 ft | 461 kts | 116° |
| 2026-04-18 10:03 | 48.82108 | 9.59845 | 33181 ft | 461 kts | 116° |
| 2026-04-18 10:03 | 48.79344 | 9.68630 | 33179 ft | 461 kts | 117° |
| 2026-04-18 10:04 | 48.76574 | 9.77412 | 33179 ft | 462 kts | 117° |
| 2026-04-18 10:04 | 48.73792 | 9.86183 | 33190 ft | 462 kts | 117° |
| 2026-04-18 10:05 | 48.70975 | 9.94930 | 33192 ft | 462 kts | 118° |
| 2026-04-18 10:05 | 48.68036 | 10.03570 | 33195 ft | 461 kts | 119° |
| 2026-04-18 10:06 | 48.65560 | 10.10712 | 33198 ft | 461 kts | 119° |
| 2026-04-18 10:06 | 48.62592 | 10.19315 | 33195 ft | 461 kts | 118° |
| 2026-04-18 10:07 | 48.59649 | 10.27920 | 33199 ft | 461 kts | 118° |
| 2026-04-18 10:07 | 48.56698 | 10.36508 | 33199 ft | 461 kts | 119° |
| 2026-04-18 10:08 | 48.53736 | 10.45077 | 33203 ft | 460 kts | 119° |
| 2026-04-18 10:08 | 48.50769 | 10.53635 | 33200 ft | 460 kts | 119° |
| 2026-04-18 10:09 | 48.47800 | 10.62181 | 33198 ft | 460 kts | 119° |
| 2026-04-18 10:09 | 48.44836 | 10.70655 | 33196 ft | 460 kts | 119° |
| 2026-04-18 10:10 | 48.41844 | 10.79172 | 33189 ft | 460 kts | 119° |
| 2026-04-18 10:10 | 48.38854 | 10.87665 | 33187 ft | 460 kts | 119° |
| 2026-04-18 10:11 | 48.35861 | 10.96167 | 33188 ft | 460 kts | 119° |
| 2026-04-18 10:11 | 48.32865 | 11.04662 | 33188 ft | 460 kts | 119° |
| 2026-04-18 10:12 | 48.29861 | 11.13146 | 33188 ft | 460 kts | 120° |
| 2026-04-18 10:12 | 48.26846 | 11.21621 | 33190 ft | 460 kts | 119° |
| 2026-04-18 10:13 | 48.23825 | 11.30080 | 33211 ft | 460 kts | 119° |
| 2026-04-18 10:13 | 48.20794 | 11.38527 | 33212 ft | 460 kts | 120° |
| 2026-04-18 10:14 | 48.17753 | 11.46959 | 33212 ft | 460 kts | 120° |
| 2026-04-18 10:14 | 48.14716 | 11.55385 | 33210 ft | 460 kts | 120° |
| 2026-04-18 10:15 | 48.11676 | 11.63811 | 33208 ft | 460 kts | 119° |
| 2026-04-18 10:15 | 48.08624 | 11.72225 | 33203 ft | 460 kts | 119° |
| 2026-04-18 10:16 | 48.05559 | 11.80633 | 33201 ft | 460 kts | 119° |
| 2026-04-18 10:16 | 48.02491 | 11.89033 | 33192 ft | 461 kts | 119° |
| 2026-04-18 10:17 | 47.99413 | 11.97425 | 33199 ft | 460 kts | 119° |
| 2026-04-18 10:17 | 47.96342 | 12.05790 | 33198 ft | 461 kts | 119° |
| 2026-04-18 10:18 | 47.93265 | 12.14166 | 33197 ft | 461 kts | 119° |
| 2026-04-18 10:18 | 47.90167 | 12.22524 | 33193 ft | 461 kts | 119° |
| 2026-04-18 10:19 | 47.87065 | 12.30874 | 33191 ft | 460 kts | 119° |
| 2026-04-18 10:19 | 47.83964 | 12.39211 | 33191 ft | 460 kts | 119° |
| 2026-04-18 10:20 | 47.80855 | 12.47540 | 33193 ft | 460 kts | 119° |
| 2026-04-18 10:20 | 47.77738 | 12.55853 | 33185 ft | 460 kts | 119° |
| 2026-04-18 10:21 | 47.74621 | 12.64154 | 33180 ft | 460 kts | 119° |
| 2026-04-18 10:21 | 47.71498 | 12.72446 | 33183 ft | 460 kts | 118° |
| 2026-04-18 10:22 | 47.68212 | 12.80519 | 33178 ft | 460 kts | 128° |
| 2026-04-18 10:22 | 47.63824 | 12.87413 | 33178 ft | 460 kts | 135° |
| 2026-04-18 10:23 | 47.59286 | 12.94103 | 33177 ft | 460 kts | 135° |
| 2026-04-18 10:23 | 47.54757 | 13.00807 | 33178 ft | 461 kts | 135° |
| 2026-04-18 10:24 | 47.50217 | 13.07495 | 33183 ft | 461 kts | 135° |
| 2026-04-18 10:24 | 47.45657 | 13.14178 | 33169 ft | 462 kts | 135° |
| 2026-04-18 10:25 | 47.41091 | 13.20857 | 33173 ft | 462 kts | 135° |
| 2026-04-18 10:25 | 47.36519 | 13.27533 | 33181 ft | 462 kts | 135° |
| 2026-04-18 10:26 | 47.32093 | 13.34390 | 33189 ft | 462 kts | 126° |
| 2026-04-18 10:26 | 47.28323 | 13.42044 | 33197 ft | 462 kts | 124° |
| 2026-04-18 10:27 | 47.24552 | 13.49706 | 33190 ft | 462 kts | 124° |
| 2026-04-18 10:27 | 47.20772 | 13.57365 | 33188 ft | 462 kts | 125° |
| 2026-04-18 10:28 | 47.16988 | 13.65004 | 33189 ft | 462 kts | 124° |
| 2026-04-18 10:28 | 47.13199 | 13.72625 | 33212 ft | 462 kts | 124° |
| 2026-04-18 10:29 | 47.09402 | 13.80242 | 33198 ft | 462 kts | 124° |
| 2026-04-18 10:29 | 47.05628 | 13.87804 | 33192 ft | 462 kts | 124° |
| 2026-04-18 10:30 | 47.01828 | 13.95382 | 33181 ft | 463 kts | 124° |
| 2026-04-18 10:30 | 46.98016 | 14.02967 | 33181 ft | 462 kts | 124° |
| 2026-04-18 10:31 | 46.94200 | 14.10548 | 33183 ft | 463 kts | 124° |
| 2026-04-18 10:31 | 46.90372 | 14.18117 | 33171 ft | 462 kts | 124° |
| 2026-04-18 10:32 | 46.86544 | 14.25669 | 33173 ft | 462 kts | 124° |
| 2026-04-18 10:32 | 46.82721 | 14.33204 | 33176 ft | 462 kts | 124° |
| 2026-04-18 10:33 | 46.78895 | 14.40734 | 33197 ft | 462 kts | 123° |
| 2026-04-18 10:33 | 46.75056 | 14.48252 | 33177 ft | 462 kts | 123° |
| 2026-04-18 10:34 | 46.71211 | 14.55764 | 33171 ft | 462 kts | 124° |
| 2026-04-18 10:34 | 46.67355 | 14.63274 | 33166 ft | 463 kts | 124° |
| 2026-04-18 10:35 | 46.63498 | 14.70764 | 33156 ft | 463 kts | 124° |
| 2026-04-18 10:35 | 46.59625 | 14.78258 | 33167 ft | 463 kts | 123° |
| 2026-04-18 10:36 | 46.55754 | 14.85743 | 33155 ft | 463 kts | 123° |
| 2026-04-18 10:36 | 46.51870 | 14.93223 | 33164 ft | 464 kts | 123° |
| 2026-04-18 10:37 | 46.47979 | 15.00702 | 33165 ft | 464 kts | 123° |
| 2026-04-18 10:37 | 46.44084 | 15.08166 | 33171 ft | 464 kts | 123° |
| 2026-04-18 10:38 | 46.40185 | 15.15624 | 33169 ft | 464 kts | 123° |
| 2026-04-18 10:38 | 46.36295 | 15.23087 | 33153 ft | 463 kts | 122° |
| 2026-04-18 10:39 | 46.32583 | 15.30691 | 33163 ft | 462 kts | 120° |
| 2026-04-18 10:39 | 46.28977 | 15.38305 | 33192 ft | 462 kts | 119° |
| 2026-04-18 10:40 | 46.25313 | 15.45948 | 33183 ft | 463 kts | 120° |
| 2026-04-18 10:40 | 46.21613 | 15.53546 | 33177 ft | 463 kts | 120° |
| 2026-04-18 10:41 | 46.17886 | 15.61140 | 33173 ft | 463 kts | 121° |
| 2026-04-18 10:41 | 46.13944 | 15.68531 | 33172 ft | 466 kts | 125° |
| 2026-04-18 10:42 | 46.09732 | 15.75646 | 33177 ft | 467 kts | 126° |
| 2026-04-18 10:42 | 46.05472 | 15.82722 | 33168 ft | 467 kts | 126° |
| 2026-04-18 10:43 | 46.01271 | 15.89843 | 33169 ft | 466 kts | 126° |
| 2026-04-18 10:43 | 45.97109 | 15.96986 | 33176 ft | 466 kts | 125° |
| 2026-04-18 10:44 | 45.92942 | 16.04120 | 33191 ft | 466 kts | 125° |
| 2026-04-18 10:44 | 45.88763 | 16.11231 | 33185 ft | 466 kts | 126° |
| 2026-04-18 10:45 | 45.84569 | 16.18322 | 33183 ft | 466 kts | 126° |
| 2026-04-18 10:45 | 45.80371 | 16.25405 | 33177 ft | 466 kts | 126° |
| 2026-04-18 10:46 | 45.76178 | 16.32481 | 33196 ft | 466 kts | 125° |
| 2026-04-18 10:46 | 45.71980 | 16.39544 | 33182 ft | 466 kts | 125° |
| 2026-04-18 10:47 | 45.67775 | 16.46594 | 33166 ft | 466 kts | 125° |
| 2026-04-18 10:47 | 45.63566 | 16.53635 | 33164 ft | 466 kts | 125° |
| 2026-04-18 10:48 | 45.59378 | 16.60614 | 33163 ft | 466 kts | 125° |
| 2026-04-18 10:48 | 45.55158 | 16.67634 | 33175 ft | 466 kts | 125° |
| 2026-04-18 10:49 | 45.50931 | 16.74652 | 33167 ft | 466 kts | 125° |
| 2026-04-18 10:49 | 45.46698 | 16.81664 | 33159 ft | 467 kts | 125° |
| 2026-04-18 10:50 | 45.42459 | 16.88660 | 33160 ft | 467 kts | 125° |
| 2026-04-18 10:50 | 45.38215 | 16.95656 | 33172 ft | 467 kts | 124° |
| 2026-04-18 10:51 | 45.33969 | 17.02644 | 33160 ft | 467 kts | 124° |
| 2026-04-18 10:51 | 45.29709 | 17.09623 | 33157 ft | 467 kts | 125° |
| 2026-04-18 10:52 | 45.25444 | 17.16587 | 33146 ft | 467 kts | 125° |
| 2026-04-18 10:52 | 45.21177 | 17.23538 | 33183 ft | 467 kts | 124° |
| 2026-04-18 10:53 | 45.17633 | 17.29321 | 33167 ft | 467 kts | 124° |
| 2026-04-18 10:53 | 45.13359 | 17.36264 | 33160 ft | 468 kts | 124° |
| 2026-04-18 10:54 | 45.08377 | 17.44320 | 33160 ft | 468 kts | 124° |
| 2026-04-18 10:54 | 45.04788 | 17.50121 | 33199 ft | 468 kts | 123° |
| 2026-04-18 10:55 | 45.00497 | 17.57041 | 33181 ft | 468 kts | 124° |
| 2026-04-18 10:55 | 44.96195 | 17.63943 | 33159 ft | 468 kts | 124° |
| 2026-04-18 10:56 | 44.91893 | 17.70844 | 33156 ft | 468 kts | 124° |
| 2026-04-18 10:56 | 44.87588 | 17.77733 | 33156 ft | 468 kts | 124° |
| 2026-04-18 10:57 | 44.83278 | 17.84618 | 33177 ft | 468 kts | 123° |
| 2026-04-18 10:57 | 44.78961 | 17.91486 | 33164 ft | 468 kts | 123° |
| 2026-04-18 10:58 | 44.74639 | 17.98345 | 33159 ft | 468 kts | 123° |
| 2026-04-18 10:58 | 44.70317 | 18.05190 | 33136 ft | 468 kts | 124° |
| 2026-04-18 10:59 | 44.65986 | 18.12032 | 33175 ft | 468 kts | 124° |
| 2026-04-18 10:59 | 44.61683 | 18.18816 | 33162 ft | 468 kts | 124° |
| 2026-04-18 11:00 | 44.57354 | 18.25626 | 33149 ft | 468 kts | 124° |
| 2026-04-18 11:00 | 44.53017 | 18.32427 | 33144 ft | 468 kts | 124° |
| 2026-04-18 11:01 | 44.48672 | 18.39219 | 33177 ft | 467 kts | 126° |
| 2026-04-18 11:01 | 44.44341 | 18.45983 | 33149 ft | 467 kts | 126° |
| 2026-04-18 11:02 | 44.37834 | 18.56115 | 33133 ft | 467 kts | 126° |
| 2026-04-18 11:02 | 44.33491 | 18.62862 | 33131 ft | 467 kts | 126° |
| 2026-04-18 11:03 | 44.29144 | 18.69602 | 33109 ft | 467 kts | 126° |
| 2026-04-18 11:03 | 44.24784 | 18.76335 | 33113 ft | 467 kts | 126° |
| 2026-04-18 11:04 | 44.20420 | 18.83056 | 33128 ft | 468 kts | 126° |
| 2026-04-18 11:04 | 44.16048 | 18.89778 | 33143 ft | 468 kts | 127° |
| 2026-04-18 11:05 | 44.11676 | 18.96475 | 33139 ft | 467 kts | 127° |
| 2026-04-18 11:05 | 44.07310 | 19.03149 | 33125 ft | 466 kts | 127° |
| 2026-04-18 11:06 | 44.02949 | 19.09808 | 33127 ft | 465 kts | 127° |
| 2026-04-18 11:06 | 43.98584 | 19.16444 | 33145 ft | 465 kts | 128° |
| 2026-04-18 11:07 | 43.94229 | 19.23055 | 33127 ft | 463 kts | 128° |
| 2026-04-18 11:07 | 43.89911 | 19.29602 | 33109 ft | 462 kts | 128° |
| 2026-04-18 11:08 | 43.85543 | 19.36219 | 33102 ft | 462 kts | 128° |
| 2026-04-18 11:08 | 43.81224 | 19.42740 | 33106 ft | 462 kts | 128° |
| 2026-04-18 11:09 | 43.76872 | 19.49276 | 33106 ft | 461 kts | 129° |
| 2026-04-18 11:09 | 43.72525 | 19.55799 | 33111 ft | 461 kts | 129° |
| 2026-04-18 11:10 | 43.68188 | 19.62303 | 33100 ft | 460 kts | 129° |
| 2026-04-18 11:10 | 43.63844 | 19.68793 | 33078 ft | 459 kts | 129° |
| 2026-04-18 11:11 | 43.59508 | 19.75274 | 33101 ft | 460 kts | 129° |
| 2026-04-18 11:11 | 43.55158 | 19.81740 | 33089 ft | 460 kts | 129° |
| 2026-04-18 11:12 | 43.50806 | 19.88194 | 33085 ft | 460 kts | 129° |
| 2026-04-18 11:12 | 43.46449 | 19.94645 | 33082 ft | 459 kts | 129° |
| 2026-04-18 11:13 | 43.42092 | 20.01076 | 33096 ft | 459 kts | 129° |
| 2026-04-18 11:13 | 43.37733 | 20.07505 | 33071 ft | 459 kts | 129° |
| 2026-04-18 11:14 | 43.33369 | 20.13926 | 33067 ft | 460 kts | 129° |
| 2026-04-18 11:14 | 43.28999 | 20.20337 | 33068 ft | 460 kts | 129° |
| 2026-04-18 11:15 | 43.24626 | 20.26744 | 33081 ft | 460 kts | 130° |
| 2026-04-18 11:15 | 43.20247 | 20.33148 | 33071 ft | 460 kts | 130° |
| 2026-04-18 11:16 | 43.15865 | 20.39545 | 33072 ft | 461 kts | 130° |
| 2026-04-18 11:16 | 43.11502 | 20.45895 | 33061 ft | 461 kts | 130° |
| 2026-04-18 11:17 | 43.07080 | 20.52312 | 33082 ft | 460 kts | 130° |
| 2026-04-18 11:17 | 43.02709 | 20.58627 | 33074 ft | 460 kts | 130° |
| 2026-04-18 11:18 | 42.98261 | 20.64935 | 33080 ft | 461 kts | 132° |
| 2026-04-18 11:18 | 42.93644 | 20.70997 | 33075 ft | 461 kts | 134° |
| 2026-04-18 11:19 | 42.88956 | 20.76970 | 33080 ft | 461 kts | 134° |
| 2026-04-18 11:19 | 42.84295 | 20.82976 | 33087 ft | 461 kts | 134° |
| 2026-04-18 11:20 | 42.79664 | 20.89015 | 33079 ft | 460 kts | 134° |
| 2026-04-18 11:20 | 42.75046 | 20.95043 | 33079 ft | 460 kts | 134° |
| 2026-04-18 11:21 | 42.70416 | 21.01054 | 33068 ft | 460 kts | 134° |
| 2026-04-18 11:21 | 42.65803 | 21.06993 | 33066 ft | 460 kts | 134° |
| 2026-04-18 11:22 | 42.61159 | 21.12965 | 33051 ft | 459 kts | 134° |
| 2026-04-18 11:22 | 42.56518 | 21.18920 | 33073 ft | 459 kts | 135° |